Kensington, Minnesota
Current Conditions -  °F | °C
As of 12:53 AM on Friday 28 Nov 2014 (Local Time) from KAXN Reporting Station
Overcast Overcast  
Wind Chill: -24°   Ceiling: 4900
Heat Index: -14°   Visibility: 9mi
Dew Point: -17°   Wind: 15mph
Humidity: 80%   Direction: 120°ESE
Pressure: 30.07"   Gusts: NA
Location:  45.78°N, 95.7°W
Report Text: KAXN 280653Z AUTO 12013KT 9SM FEW031 OVC049 M14/M17 A3007 RMK AO2 SNE49 SLP219 P0001 T11441172
Loading
Personal Weather Stations






























Interactive Weather Map New forecast layout! Learn more

10-Day Weather Forecast

Advertisements
Track Severe Weather on mobile